»·PEaware :: N2MZ KSNA-KSMO

N2MZ :: KSNA-KSMO

FLIGHT INFORMATION

Flight Status: Arrived
Operator: Privately registered:
United States
More flights under this callsign
Pilot: Mike Z. (25595)
Aircraft: CESSNA 172 SKYHAWK
(C172)
More flights by this aircraft type
Origin: KSNA John Wayne-Orange Co
United States
Destination: KSMO Santa Monica Mun
United States
More flights between these airports :: More routes between these airports
Route: SNA SLI V8 POXKU V363 BAYJY V186 DARTS SMO
File this flight plan on PilotEdge
Remarks: I-4 with TEC Route CSTP9
Altitude:
(Current/Filed)
6,000ft
Speed:
(Current/Filed)
110kts
Departed: 07-Sep-19 08:01 AM
Arrived: 07-Sep-19 08:46 AM
Distance/Time
Traveled:
35nm/0:44
Distance/Time
To Go:
Arrived

Flight Plot

Page will automatically refresh every two minutes.

Flight plan parsing failed; only flown route is shown


Map Options




Map Legend


Flown Route
Filed Route
Departure Airport
Arrival Airport
Navaid (VOR, NDB)
Fix

Horizontal Profiles

Position Reports

Time Latitude Longitude Heading Altitude Ground
Speed
07-Sep-19 07:37 33.676205 -117.871104 212 60ft 0kts
07-Sep-19 07:38 33.676205 -117.871104 212 60ft 0kts
07-Sep-19 07:39 33.676205 -117.871104 212 60ft 0kts
07-Sep-19 07:40 33.676205 -117.871104 212 60ft 0kts
07-Sep-19 07:41 33.676205 -117.871104 212 60ft 0kts
07-Sep-19 07:42 33.676205 -117.871104 212 60ft 0kts
07-Sep-19 07:43 33.676205 -117.871104 212 60ft 0kts
07-Sep-19 07:44 33.676205 -117.871104 212 60ft 0kts
07-Sep-19 07:45 33.676205 -117.871104 212 60ft 0kts
07-Sep-19 07:46 33.676205 -117.871104 212 60ft 0kts
07-Sep-19 07:47 33.676205 -117.871104 212 60ft 0kts
07-Sep-19 07:48 33.676205 -117.871104 212 60ft 0kts
07-Sep-19 07:49 33.676205 -117.871104 212 60ft 0kts
07-Sep-19 07:50 33.675958 -117.870876 130 60ft 6kts
07-Sep-19 07:51 33.678799 -117.868339 26 60ft 30kts
07-Sep-19 07:52 33.681247 -117.866375 185 60ft 0kts
07-Sep-19 07:53 33.681246 -117.866375 185 60ft 0kts
07-Sep-19 07:54 33.681247 -117.866375 185 60ft 0kts
07-Sep-19 07:55 33.681247 -117.866375 185 60ft 0kts
07-Sep-19 07:56 33.681247 -117.866375 185 60ft 0kts
07-Sep-19 07:57 33.681247 -117.866375 185 60ft 0kts
07-Sep-19 07:58 33.681246 -117.866375 181 60ft 0kts
07-Sep-19 07:59 33.680822 -117.865813 188 60ft 0kts
07-Sep-19 08:00 33.667045 -117.876799 235 406ft 82kts
07-Sep-19 08:01 33.655431 -117.901609 241 1187ft 81kts
07-Sep-19 08:02 33.644123 -117.926061 241 1894ft 85kts
07-Sep-19 08:03 33.632871 -117.950217 241 2594ft 85kts
07-Sep-19 08:05 33.621109 -117.975424 240 3271ft 85kts
07-Sep-19 08:06 33.620937 -117.998951 341 3932ft 86kts
07-Sep-19 08:07 33.643980 -117.991482 21 4538ft 87kts
07-Sep-19 08:08 33.663711 -117.979413 31 5221ft 71kts
07-Sep-19 08:09 33.681142 -117.966126 31 5727ft 76kts
07-Sep-19 08:10 33.700424 -117.951087 31 6022ft 98kts
07-Sep-19 08:11 33.726119 -117.931052 31 6019ft 116kts
07-Sep-19 08:12 33.752441 -117.910460 31 6018ft 110kts
07-Sep-19 08:13 33.778829 -117.890033 30 6017ft 114kts
07-Sep-19 08:14 33.802475 -117.865515 70 6016ft 118kts
07-Sep-19 08:15 33.819122 -117.833250 32 6016ft 116kts
07-Sep-19 08:16 33.839630 -117.804356 67 6016ft 119kts
07-Sep-19 08:17 33.860887 -117.781940 355 6019ft 113kts
07-Sep-19 08:18 33.892644 -117.783172 357 6017ft 114kts
07-Sep-19 08:19 33.924491 -117.783875 357 6015ft 114kts
07-Sep-19 08:20 33.956810 -117.784741 357 5984ft 114kts
07-Sep-19 08:21 33.988604 -117.785674 357 5991ft 114kts
07-Sep-19 08:22 34.010730 -117.805671 290 5997ft 113kts
07-Sep-19 08:23 34.022231 -117.841370 293 5999ft 114kts
07-Sep-19 08:24 34.034356 -117.876801 292 5998ft 114kts
07-Sep-19 08:24 34.044375 -117.906561 293 5996ft 114kts
07-Sep-19 08:26 34.058709 -117.947768 293 5993ft 114kts
07-Sep-19 08:27 34.070672 -117.983406 292 5999ft 114kts
07-Sep-19 08:27 34.080508 -118.013194 292 5997ft 114kts
07-Sep-19 08:29 34.094086 -118.054858 292 6012ft 114kts
07-Sep-19 08:29 34.102764 -118.081591 292 6009ft 114kts
07-Sep-19 08:30 34.114472 -118.117548 292 6009ft 115kts
07-Sep-19 08:31 34.126089 -118.153504 292 6009ft 115kts
07-Sep-19 08:32 34.137815 -118.189545 292 6009ft 115kts
07-Sep-19 08:33 34.149344 -118.225756 292 6009ft 115kts
07-Sep-19 08:34 34.157347 -118.265471 255 5693ft 128kts
07-Sep-19 08:35 34.140746 -118.301754 229 5362ft 132kts
07-Sep-19 08:36 34.116127 -118.334152 229 4668ft 132kts
07-Sep-19 08:37 34.091686 -118.366416 228 3961ft 123kts
07-Sep-19 08:38 34.069477 -118.395621 227 3195ft 119kts
07-Sep-19 08:39 34.051984 -118.419107 264 2912ft 88kts
07-Sep-19 08:40 34.068535 -118.421517 27 2998ft 115kts
07-Sep-19 08:41 34.066028 -118.392394 142 2448ft 132kts
07-Sep-19 08:42 34.042943 -118.405374 267 1365ft 117kts
07-Sep-19 08:43 34.030833 -118.433610 225 688ft 81kts
07-Sep-19 08:44 34.017427 -118.449452 225 149ft 55kts
07-Sep-19 08:45 34.014250 -118.452356 138 132ft 0kts
07-Sep-19 08:46 34.013765 -118.452600 223 131ft 15kts
07-Sep-19 08:47 34.012714 -118.453049 63 128ft 0kts
07-Sep-19 08:48 34.012714 -118.453049 63 128ft 0kts
07-Sep-19 08:49 34.012714 -118.453049 63 128ft 0kts
07-Sep-19 08:50 34.012714 -118.453049 63 128ft 0kts
07-Sep-19 08:51 34.012714 -118.453049 63 128ft 0kts
07-Sep-19 08:52 34.012714 -118.453049 63 128ft 0kts
07-Sep-19 08:53 34.012714 -118.453049 63 128ft 0kts
07-Sep-19 08:54 34.012714 -118.453049 63 128ft 0kts
07-Sep-19 08:55 34.012714 -118.453049 63 128ft 0kts
07-Sep-19 08:56 34.012714 -118.453049 63 128ft 0kts
07-Sep-19 08:57 34.012714 -118.453049 63 128ft 0kts
07-Sep-19 08:58 34.012714 -118.453049 63 128ft 0kts
07-Sep-19 08:59 34.012732 -118.453006 63 128ft 0kts

Navigation Log

Ident Type
Flight plan parsing failed, navigation log unavailable